Time;durP1;ratioP1;P1;durP2;ratioP2;P2;SDS_P1;SDS_P2;PMS_P1;PMS_P2;Temp;Humidity;BMP_temperature;BMP_pressure;BME280_temperature;BME280_humidity;BME280_pressure;Samples;Min_cycle;Max_cycle;Signal;HPM_P1;HPM_P2
2022/10/10 00:00:41;;;;;;;8.93;5.50;;;6.70;99.90;;;;;;5017510;28;20739;-76
2022/10/10 00:03:07;;;;;;;8.60;5.10;;;6.60;99.90;;;;;;5064789;28;20066;-77
2022/10/10 00:05:33;;;;;;;9.40;5.95;;;6.60;99.90;;;;;;5072399;28;20497;-76
2022/10/10 00:07:59;;;;;;;7.45;5.75;;;6.70;99.90;;;;;;5071964;28;20146;-76
2022/10/10 00:10:25;;;;;;;9.27;5.32;;;6.60;99.90;;;;;;5054488;28;20556;-76
2022/10/10 00:12:51;;;;;;;8.93;5.97;;;6.60;99.90;;;;;;5049853;28;20057;-76
2022/10/10 00:15:16;;;;;;;10.65;5.80;;;6.60;99.90;;;;;;5034130;28;20063;-77
2022/10/10 00:17:42;;;;;;;7.97;5.32;;;6.70;99.90;;;;;;5034836;28;20037;-77
2022/10/10 00:20:10;;;;;;;10.20;5.43;;;6.70;99.90;;;;;;5067151;28;20759;-76
2022/10/10 00:22:36;;;;;;;9.30;5.97;;;6.70;99.90;;;;;;5069767;28;20055;-77
2022/10/10 00:25:02;;;;;;;13.00;5.00;;;6.60;99.90;;;;;;5036314;28;20070;-77
2022/10/10 00:27:27;;;;;;;10.30;5.35;;;6.60;99.90;;;;;;5051417;28;20051;-76
2022/10/10 00:29:53;;;;;;;8.65;5.78;;;6.60;99.90;;;;;;5042440;28;20049;-76
2022/10/10 00:32:19;;;;;;;8.95;5.57;;;6.50;99.90;;;;;;5056191;28;20043;-77
2022/10/10 00:34:44;;;;;;;8.57;5.45;;;6.70;99.90;;;;;;5034103;28;20047;-78
2022/10/10 00:37:10;;;;;;;10.20;5.82;;;6.50;99.90;;;;;;5050522;28;20458;-79
2022/10/10 00:39:36;;;;;;;9.45;5.57;;;6.40;99.90;;;;;;5052170;28;20580;-79
2022/10/10 00:42:01;;;;;;;8.20;5.70;;;6.40;99.90;;;;;;5045034;28;20044;-83
2022/10/10 00:44:27;;;;;;;9.18;5.97;;;6.40;99.90;;;;;;5026972;28;20051;-79
2022/10/10 00:46:53;;;;;;;9.75;6.07;;;6.40;99.90;;;;;;5068668;28;20064;-78
2022/10/10 00:49:23;;;;;;;9.98;6.03;;;6.40;99.90;;;;;;5030109;28;20040;-78
2022/10/10 00:51:52;;;;;;;8.43;5.82;;;6.30;99.90;;;;;;5066195;28;20059;-79
2022/10/10 00:54:20;;;;;;;6.32;5.68;;;6.30;99.90;;;;;;5069949;28;20048;-78
2022/10/10 00:57:09;;;;;;;6.50;5.07;;;6.30;99.90;;;;;;5054176;28;20443;-78
2022/10/10 00:59:39;;;;;;;10.05;5.13;;;6.30;99.90;;;;;;5069219;28;20072;-78
2022/10/10 01:02:05;;;;;;;9.30;5.40;;;6.30;99.90;;;;;;5049138;28;20084;-82
2022/10/10 01:04:35;;;;;;;13.75;6.25;;;6.30;99.90;;;;;;5062711;28;20079;-79
2022/10/10 01:07:04;;;;;;;9.88;5.78;;;6.30;99.90;;;;;;5062110;28;20048;-78
2022/10/10 01:09:32;;;;;;;8.32;5.65;;;6.30;99.90;;;;;;5054243;28;20115;-78
2022/10/10 01:12:20;;;;;;;9.80;6.03;;;6.30;99.90;;;;;;5031423;28;20051;-78
2022/10/10 01:15:09;;;;;;;12.02;5.85;;;6.30;99.90;;;;;;5069264;28;20097;-78
2022/10/10 01:17:51;;;;;;;8.60;5.10;;;6.20;99.90;;;;;;5077546;28;20044;-78
2022/10/10 01:20:35;;;;;;;7.60;5.13;;;6.20;99.90;;;;;;5068386;28;20040;-78
2022/10/10 01:23:22;;;;;;;7.63;5.43;;;6.30;99.90;;;;;;5055309;28;20048;-82
2022/10/10 01:26:31;;;;;;;7.03;5.35;;;6.30;99.90;;;;;;5064902;28;20095;-78
2022/10/10 01:29:05;;;;;;;9.27;6.78;;;6.30;99.90;;;;;;5019210;28;20052;-79
2022/10/10 01:31:37;;;;;;;8.48;6.07;;;6.30;99.90;;;;;;5068687;28;20083;-78
2022/10/10 01:34:13;;;;;;;9.88;6.07;;;6.30;99.90;;;;;;5057943;28;20055;-78
2022/10/10 01:36:55;;;;;;;11.18;5.85;;;6.30;99.90;;;;;;5057928;28;20056;-78
2022/10/10 01:39:24;;;;;;;9.95;5.75;;;6.20;99.90;;;;;;5057145;28;20049;-78
2022/10/10 01:42:02;;;;;;;10.98;6.28;;;6.20;99.90;;;;;;5068694;28;20071;-78
2022/10/10 01:44:27;;;;;;;8.70;6.53;;;6.10;99.90;;;;;;5069157;28;20420;-78
2022/10/10 01:46:53;;;;;;;8.52;6.45;;;6.10;99.90;;;;;;5069467;28;20040;-79
2022/10/10 01:49:23;;;;;;;10.85;6.68;;;6.10;99.90;;;;;;5054833;28;20052;-79
2022/10/10 01:52:18;;;;;;;11.00;6.70;;;6.10;99.90;;;;;;5056048;28;20059;-78
2022/10/10 01:54:58;;;;;;;10.95;6.80;;;6.10;99.90;;;;;;5032223;28;20052;-78
2022/10/10 01:57:36;;;;;;;9.50;6.35;;;6.10;99.90;;;;;;5063955;28;20379;-78
2022/10/10 02:00:06;;;;;;;11.57;6.68;;;6.00;99.90;;;;;;5046508;28;20052;-79
2022/10/10 02:02:41;;;;;;;9.95;6.18;;;6.00;99.90;;;;;;5051055;28;20222;-78
2022/10/10 02:05:17;;;;;;;12.38;6.15;;;6.00;99.90;;;;;;5057727;28;20471;-78
2022/10/10 02:07:48;;;;;;;10.90;6.20;;;6.00;99.90;;;;;;5054055;28;20039;-79
2022/10/10 02:10:20;;;;;;;8.65;6.13;;;5.90;99.90;;;;;;5070833;28;20579;-82
2022/10/10 02:12:47;;;;;;;10.80;6.57;;;5.90;99.90;;;;;;5071388;28;20063;-78
2022/10/10 02:15:16;;;;;;;12.55;6.80;;;5.90;99.90;;;;;;5051857;28;20073;-81
2022/10/10 02:17:44;;;;;;;9.10;6.22;;;5.70;99.90;;;;;;5040016;28;20094;-78
2022/10/10 02:20:12;;;;;;;10.25;6.22;;;5.90;99.90;;;;;;5069863;28;20127;-78
2022/10/10 02:22:41;;;;;;;9.68;6.05;;;5.90;99.90;;;;;;5070506;28;20036;-78
2022/10/10 02:25:07;;;;;;;9.07;6.47;;;5.80;99.90;;;;;;5036155;28;20063;-79
2022/10/10 02:27:42;;;;;;;8.35;6.05;;;5.80;99.90;;;;;;5046583;28;20122;-78
2022/10/10 02:30:09;;;;;;;9.00;6.43;;;5.80;99.90;;;;;;5047505;28;20452;-78
2022/10/10 02:32:59;;;;;;;10.45;6.63;;;5.80;99.90;;;;;;5045549;28;20056;-78
2022/10/10 02:35:30;;;;;;;13.00;6.90;;;5.90;99.90;;;;;;5066552;28;20397;-78
2022/10/10 02:37:58;;;;;;;10.77;6.35;;;5.90;99.90;;;;;;5063343;28;20800;-78
2022/10/10 02:40:30;;;;;;;11.38;6.60;;;5.90;99.90;;;;;;5057723;28;20498;-78
2022/10/10 02:42:59;;;;;;;10.10;6.82;;;6.00;99.90;;;;;;5053145;28;20069;-78
2022/10/10 02:45:27;;;;;;;11.18;7.38;;;6.00;99.90;;;;;;5070307;28;20443;-78
2022/10/10 02:47:54;;;;;;;13.02;6.63;;;6.00;99.90;;;;;;5053324;28;20109;-78
2022/10/10 02:50:20;;;;;;;9.88;6.93;;;6.00;99.90;;;;;;5053114;28;20094;-81
2022/10/10 02:52:46;;;;;;;11.10;6.70;;;6.00;99.90;;;;;;5071257;28;20506;-78
2022/10/10 02:55:12;;;;;;;10.98;6.78;;;6.00;99.90;;;;;;5038567;28;20046;-78
2022/10/10 02:57:37;;;;;;;11.43;7.10;;;6.10;99.90;;;;;;5068964;28;20139;-78
2022/10/10 03:00:05;;;;;;;10.05;6.50;;;6.10;99.90;;;;;;5064396;28;20524;-78
2022/10/10 03:02:31;;;;;;;11.18;7.18;;;6.00;99.90;;;;;;5054204;28;20075;-78
2022/10/10 03:04:57;;;;;;;11.90;6.70;;;6.00;99.90;;;;;;5071414;28;20044;-78
2022/10/10 03:07:24;;;;;;;10.85;6.90;;;6.00;99.90;;;;;;5051731;28;20610;-78
2022/10/10 03:09:50;;;;;;;13.55;7.30;;;6.00;99.90;;;;;;5037296;28;20055;-78
2022/10/10 03:12:16;;;;;;;11.27;7.10;;;6.00;99.90;;;;;;5053994;28;20062;-78
2022/10/10 03:14:42;;;;;;;11.75;6.85;;;6.00;99.90;;;;;;5047379;28;20877;-78
2022/10/10 03:17:08;;;;;;;15.23;7.57;;;6.00;99.90;;;;;;5047629;28;20056;-80
2022/10/10 03:19:34;;;;;;;8.48;6.55;;;6.10;99.90;;;;;;5051474;28;20044;-78
2022/10/10 03:21:59;;;;;;;11.88;7.10;;;6.30;99.90;;;;;;5009813;28;20052;-79
2022/10/10 03:24:25;;;;;;;10.60;7.03;;;6.10;99.90;;;;;;5047448;28;20052;-78
2022/10/10 03:26:51;;;;;;;13.18;6.70;;;6.10;99.90;;;;;;5039110;28;20049;-78
2022/10/10 03:29:17;;;;;;;13.82;7.28;;;6.10;99.90;;;;;;5064895;28;20052;-78
2022/10/10 03:31:42;;;;;;;11.52;7.53;;;6.10;99.90;;;;;;5043299;28;20040;-79
2022/10/10 03:34:09;;;;;;;9.73;7.22;;;6.10;99.90;;;;;;5047548;28;20109;-83
2022/10/10 03:36:34;;;;;;;9.85;7.15;;;6.10;99.90;;;;;;5051813;28;20075;-79
2022/10/10 03:39:00;;;;;;;12.55;7.60;;;6.00;99.90;;;;;;5042756;28;20090;-78
2022/10/10 03:41:26;;;;;;;9.93;7.38;;;6.00;99.90;;;;;;5048467;28;20048;-81
2022/10/10 03:43:51;;;;;;;13.65;7.97;;;6.00;99.90;;;;;;5049717;28;20040;-78
2022/10/10 03:46:17;;;;;;;11.75;7.30;;;6.00;99.90;;;;;;5055806;28;20123;-78
2022/10/10 03:48:43;;;;;;;12.38;7.57;;;5.90;99.90;;;;;;5064651;28;20071;-78
2022/10/10 03:51:09;;;;;;;10.93;7.45;;;5.90;99.90;;;;;;5059016;28;20455;-80
2022/10/10 03:53:34;;;;;;;16.08;8.18;;;5.90;99.90;;;;;;5065333;28;20044;-81
2022/10/10 03:56:00;;;;;;;10.18;7.65;;;5.90;99.90;;;;;;5062101;28;20040;-78
2022/10/10 03:58:26;;;;;;;11.90;7.55;;;5.80;99.90;;;;;;5038144;28;20047;-82
2022/10/10 04:00:56;;;;;;;13.25;8.38;;;5.90;99.90;;;;;;5075211;28;20040;-78
2022/10/10 04:03:22;;;;;;;11.38;7.82;;;5.90;99.90;;;;;;5058462;28;20052;-78
2022/10/10 04:05:49;;;;;;;14.40;7.95;;;5.90;99.90;;;;;;5054240;28;20127;-79
2022/10/10 04:08:15;;;;;;;17.92;8.25;;;5.90;99.90;;;;;;5068222;28;20382;-78
2022/10/10 04:10:40;;;;;;;16.05;7.85;;;5.80;99.90;;;;;;5063713;28;20041;-79
2022/10/10 04:13:06;;;;;;;12.45;7.82;;;5.80;99.90;;;;;;5033174;28;20055;-78
2022/10/10 04:15:32;;;;;;;12.63;7.80;;;5.80;99.90;;;;;;5071510;28;20055;-78
2022/10/10 04:17:58;;;;;;;12.23;7.60;;;5.80;99.90;;;;;;5071331;28;20053;-78
2022/10/10 04:20:24;;;;;;;13.85;8.13;;;5.80;99.90;;;;;;5056047;28;20168;-79
2022/10/10 04:22:49;;;;;;;15.90;8.70;;;5.80;99.90;;;;;;5071674;28;20840;-78
2022/10/10 04:25:15;;;;;;;14.57;9.02;;;5.80;99.90;;;;;;5071972;28;20092;-78
2022/10/10 04:27:42;;;;;;;11.32;8.13;;;5.70;99.90;;;;;;5072809;28;20131;-78
2022/10/10 04:30:09;;;;;;;14.32;8.73;;;5.70;99.90;;;;;;5055830;28;20576;-78
2022/10/10 04:32:35;;;;;;;11.57;7.72;;;5.70;99.90;;;;;;5069493;28;20052;-81
2022/10/10 04:35:01;;;;;;;13.68;8.98;;;5.70;99.90;;;;;;5057025;28;20097;-79
2022/10/10 04:37:27;;;;;;;13.90;9.18;;;5.70;99.90;;;;;;5059822;28;20091;-82
2022/10/10 04:39:52;;;;;;;13.77;8.98;;;5.70;99.90;;;;;;5033787;28;20127;-78
2022/10/10 04:42:18;;;;;;;14.98;8.27;;;5.60;99.90;;;;;;5049611;28;20052;-78
2022/10/10 04:44:44;;;;;;;12.70;7.72;;;5.60;99.90;;;;;;5038122;28;20035;-79
2022/10/10 04:47:09;;;;;;;13.23;8.65;;;5.70;99.90;;;;;;5069570;28;20057;-78
2022/10/10 04:49:35;;;;;;;13.02;8.35;;;5.60;99.90;;;;;;5052781;28;20043;-80
2022/10/10 04:52:01;;;;;;;14.00;8.77;;;5.60;99.90;;;;;;5054239;28;20119;-79
2022/10/10 04:54:26;;;;;;;14.13;8.80;;;5.60;99.90;;;;;;5051330;28;20048;-79
2022/10/10 04:56:52;;;;;;;13.27;8.75;;;5.60;99.90;;;;;;5067845;28;20135;-78
2022/10/10 04:59:18;;;;;;;15.18;9.10;;;5.60;99.90;;;;;;5057411;28;20040;-78
2022/10/10 05:01:43;;;;;;;14.77;8.63;;;5.60;99.90;;;;;;5063965;28;20093;-78
2022/10/10 05:04:09;;;;;;;15.05;8.70;;;5.60;99.90;;;;;;5048128;28;20051;-78
2022/10/10 05:06:35;;;;;;;13.38;8.95;;;5.60;99.90;;;;;;5039039;28;20048;-82
2022/10/10 05:09:00;;;;;;;15.75;9.10;;;5.50;99.90;;;;;;5059732;28;20041;-79
2022/10/10 05:11:26;;;;;;;14.18;8.93;;;5.60;99.90;;;;;;5069039;28;20550;-82
2022/10/10 05:13:52;;;;;;;17.67;9.32;;;5.50;99.90;;;;;;5047704;28;20044;-78
2022/10/10 05:16:17;;;;;;;12.60;9.30;;;5.60;99.90;;;;;;5070242;28;20048;-78
2022/10/10 05:18:43;;;;;;;14.15;9.77;;;5.50;99.90;;;;;;5056849;28;20074;-81
2022/10/10 05:21:10;;;;;;;15.73;9.55;;;5.50;99.90;;;;;;5064339;28;20070;-80
2022/10/10 05:23:37;;;;;;;13.40;9.65;;;5.50;99.90;;;;;;5055566;28;20138;-81
2022/10/10 05:26:03;;;;;;;13.82;9.15;;;5.60;99.90;;;;;;5046459;28;20040;-80
2022/10/10 05:28:30;;;;;;;13.95;9.55;;;5.60;99.90;;;;;;5070600;28;20503;-80
2022/10/10 05:30:55;;;;;;;13.93;9.85;;;5.50;99.90;;;;;;5041631;28;20526;-80
2022/10/10 05:33:21;;;;;;;13.98;9.90;;;5.50;99.90;;;;;;5073230;28;20097;-80
2022/10/10 05:35:47;;;;;;;15.23;9.98;;;5.50;99.90;;;;;;5038849;28;20062;-81
2022/10/10 05:38:12;;;;;;;14.43;9.50;;;5.50;99.90;;;;;;5072485;28;20067;-80
2022/10/10 05:40:39;;;;;;;16.23;9.20;;;5.50;99.90;;;;;;5055080;28;20039;-82
2022/10/10 05:43:05;;;;;;;17.20;10.27;;;5.50;99.90;;;;;;5072513;28;20113;-80
2022/10/10 05:45:31;;;;;;;16.23;9.90;;;5.50;99.90;;;;;;5036901;28;20091;-79
2022/10/10 05:47:56;;;;;;;15.82;10.13;;;5.50;99.90;;;;;;5070036;28;20144;-80
2022/10/10 05:50:37;;;;;;;18.45;9.73;;;5.50;99.90;;;;;;5051856;28;20050;-79
2022/10/10 05:53:03;;;;;;;15.82;10.43;;;5.50;99.90;;;;;;5058826;28;20118;-79
2022/10/10 05:55:29;;;;;;;16.13;9.88;;;5.50;99.90;;;;;;5068603;28;20131;-78
2022/10/10 05:57:55;;;;;;;16.40;10.45;;;5.70;99.90;;;;;;5044021;28;20177;-79
2022/10/10 06:00:20;;;;;;;14.63;10.25;;;5.50;99.90;;;;;;5018353;28;20123;-80
2022/10/10 06:02:47;;;;;;;17.63;10.80;;;5.50;99.90;;;;;;5031289;28;20044;-79
2022/10/10 06:05:12;;;;;;;18.05;9.73;;;5.50;99.90;;;;;;5074378;28;20044;-79
2022/10/10 06:07:38;;;;;;;16.38;10.32;;;5.50;99.90;;;;;;5038429;28;20599;-79
2022/10/10 06:10:04;;;;;;;18.33;10.45;;;5.50;99.90;;;;;;5046443;28;20054;-79
2022/10/10 06:12:30;;;;;;;19.00;11.75;;;5.60;99.90;;;;;;5070582;28;20044;-78
2022/10/10 06:14:56;;;;;;;17.25;11.48;;;5.60;99.90;;;;;;5070666;28;20384;-78
2022/10/10 06:17:22;;;;;;;17.67;10.45;;;5.60;99.90;;;;;;5039206;28;20059;-75
2022/10/10 06:19:48;;;;;;;16.52;10.40;;;5.70;99.90;;;;;;5052292;28;20040;-75
2022/10/10 06:22:13;;;;;;;13.95;10.27;;;5.70;99.90;;;;;;5035662;28;20133;-76
2022/10/10 06:24:39;;;;;;;18.42;10.05;;;5.70;99.90;;;;;;5064705;28;20051;-76
2022/10/10 06:27:05;;;;;;;16.30;10.20;;;6.00;99.90;;;;;;5035171;28;20056;-75
2022/10/10 06:29:30;;;;;;;14.63;9.27;;;5.90;99.90;;;;;;5054631;28;20094;-76
2022/10/10 06:31:56;;;;;;;18.35;10.98;;;6.20;99.90;;;;;;5038322;28;20063;-76
2022/10/10 06:34:21;;;;;;;22.63;10.63;;;6.10;99.90;;;;;;5071544;28;20123;-76
2022/10/10 06:36:51;;;;;;;17.95;10.05;;;6.20;99.90;;;;;;5051578;28;20047;-80
2022/10/10 06:39:17;;;;;;;15.48;10.05;;;6.30;99.90;;;;;;5035747;28;20056;-76
2022/10/10 06:41:43;;;;;;;14.88;9.95;;;6.30;99.90;;;;;;5045598;28;20102;-76
2022/10/10 06:44:09;;;;;;;15.85;9.45;;;6.30;99.90;;;;;;5054600;28;20517;-75
2022/10/10 06:46:36;;;;;;;14.93;10.00;;;6.40;99.90;;;;;;5052092;28;20049;-75
2022/10/10 06:49:05;;;;;;;17.58;9.75;;;6.40;99.90;;;;;;5019123;28;20505;-76
2022/10/10 06:51:31;;;;;;;22.88;9.65;;;6.50;99.90;;;;;;5052143;28;20048;-76
2022/10/10 06:53:58;;;;;;;19.60;10.25;;;6.60;99.90;;;;;;5065812;28;20075;-76
2022/10/10 06:56:24;;;;;;;17.95;10.55;;;6.60;99.90;;;;;;5035539;28;20087;-75
2022/10/10 06:58:50;;;;;;;16.48;10.25;;;6.70;99.90;;;;;;5051812;28;20105;-78
2022/10/10 07:01:20;;;;;;;15.77;9.38;;;6.80;99.90;;;;;;5043988;28;20417;-76
2022/10/10 07:03:46;;;;;;;16.23;9.63;;;6.90;99.90;;;;;;5050788;28;20048;-76
2022/10/10 07:06:13;;;;;;;15.82;9.30;;;6.90;99.90;;;;;;5070893;28;20040;-76
2022/10/10 07:08:39;;;;;;;17.38;9.95;;;7.00;99.90;;;;;;5054470;28;20043;-76
2022/10/10 07:11:06;;;;;;;21.45;9.80;;;7.10;99.90;;;;;;5028713;28;20109;-76
2022/10/10 07:13:33;;;;;;;13.43;9.13;;;7.20;99.90;;;;;;5039138;28;20072;-76
2022/10/10 07:15:59;;;;;;;13.15;9.73;;;7.40;99.90;;;;;;5049317;28;20393;-76
2022/10/10 07:18:24;;;;;;;13.32;9.30;;;7.40;99.90;;;;;;5058649;28;20048;-76
2022/10/10 07:20:54;;;;;;;13.38;8.93;;;7.50;99.90;;;;;;5055824;28;20178;-76
2022/10/10 07:23:19;;;;;;;14.20;9.80;;;7.60;99.90;;;;;;5039720;28;20075;-76
2022/10/10 07:25:45;;;;;;;16.20;10.35;;;7.70;99.90;;;;;;5055871;28;20131;-76
2022/10/10 07:28:11;;;;;;;14.77;9.23;;;7.90;99.90;;;;;;5026396;28;20052;-76
2022/10/10 07:30:44;;;;;;;14.48;8.90;;;7.80;99.90;;;;;;5055456;28;20048;-76
2022/10/10 07:33:11;;;;;;;13.55;8.75;;;7.80;99.90;;;;;;5053300;28;20064;-77
2022/10/10 07:35:37;;;;;;;14.63;9.38;;;7.90;99.90;;;;;;5039030;28;20137;-76
2022/10/10 07:38:03;;;;;;;13.02;8.98;;;8.00;99.90;;;;;;5056624;28;20133;-76
2022/10/10 07:40:28;;;;;;;15.32;9.02;;;8.10;99.90;;;;;;5037691;28;20140;-75
2022/10/10 07:42:54;;;;;;;14.82;8.93;;;8.10;99.90;;;;;;5044411;28;20040;-79
2022/10/10 07:45:20;;;;;;;15.63;8.90;;;8.20;99.90;;;;;;5045113;28;20044;-76
2022/10/10 07:47:45;;;;;;;13.52;9.27;;;8.30;99.90;;;;;;5061789;28;20044;-76
2022/10/10 07:50:11;;;;;;;18.35;10.52;;;8.40;99.90;;;;;;5028149;28;20053;-76
2022/10/10 07:52:39;;;;;;;17.48;9.93;;;8.40;99.90;;;;;;5055778;28;20429;-76
2022/10/10 07:55:05;;;;;;;14.23;9.18;;;8.50;99.90;;;;;;5067722;28;20051;-76
2022/10/10 07:57:33;;;;;;;16.52;9.50;;;8.60;99.90;;;;;;5057888;28;20493;-76
2022/10/10 08:00:07;;;;;;;13.20;9.30;;;8.70;99.90;;;;;;5044408;28;20056;-76
2022/10/10 08:02:33;;;;;;;14.75;9.90;;;8.70;99.90;;;;;;5046308;28;20051;-76
2022/10/10 08:04:59;;;;;;;12.88;9.32;;;8.80;99.90;;;;;;5054036;28;20051;-77
2022/10/10 08:07:25;;;;;;;15.90;8.55;;;8.90;99.90;;;;;;5057202;28;20048;-76
2022/10/10 08:09:50;;;;;;;13.02;9.02;;;9.10;99.90;;;;;;5040749;28;20040;-76
2022/10/10 08:12:16;;;;;;;14.60;8.80;;;9.20;99.90;;;;;;5073332;28;20044;-76
2022/10/10 08:14:42;;;;;;;16.52;9.93;;;9.30;99.90;;;;;;5040797;28;20378;-77
2022/10/10 08:17:07;;;;;;;12.32;8.77;;;9.40;99.90;;;;;;5073175;28;20054;-76
2022/10/10 08:19:33;;;;;;;13.73;8.18;;;9.50;99.90;;;;;;5056713;28;20065;-76
2022/10/10 08:21:59;;;;;;;12.07;8.63;;;9.50;99.90;;;;;;5067909;28;20060;-80
2022/10/10 08:24:25;;;;;;;15.90;9.15;;;9.60;99.90;;;;;;5068199;28;20123;-76
2022/10/10 08:26:50;;;;;;;14.48;9.82;;;9.70;99.90;;;;;;5072784;28;20550;-76
2022/10/10 08:29:17;;;;;;;13.55;9.13;;;9.80;99.90;;;;;;5070874;28;20048;-76
2022/10/10 08:31:42;;;;;;;14.75;9.20;;;9.90;99.90;;;;;;5053272;28;20048;-76
2022/10/10 08:34:08;;;;;;;14.00;8.13;;;10.00;99.90;;;;;;5050222;28;20040;-76
2022/10/10 08:36:34;;;;;;;15.20;8.23;;;10.10;99.90;;;;;;5071885;28;20090;-77
2022/10/10 08:39:00;;;;;;;18.15;9.25;;;10.10;99.90;;;;;;5054972;28;20054;-80
2022/10/10 08:41:29;;;;;;;14.90;8.55;;;10.30;99.90;;;;;;5053396;28;20485;-77
2022/10/10 08:44:01;;;;;;;16.10;8.90;;;10.40;99.90;;;;;;5051768;28;20059;-76
2022/10/10 08:46:40;;;;;;;14.07;8.15;;;10.50;99.90;;;;;;5057076;28;20087;-77
2022/10/10 08:49:22;;;;;;;14.88;8.32;;;10.70;99.90;;;;;;5070323;28;20082;-76
2022/10/10 08:51:56;;;;;;;12.40;8.38;;;10.90;99.90;;;;;;5055057;28;20052;-77
2022/10/10 08:54:25;;;;;;;15.25;8.40;;;11.10;99.90;;;;;;5045463;28;20104;-77
2022/10/10 08:56:55;;;;;;;13.65;8.77;;;11.30;99.90;;;;;;5054888;28;20045;-78
2022/10/10 08:59:26;;;;;;;13.90;8.80;;;11.50;99.90;;;;;;5073183;28;20664;-77
2022/10/10 09:02:02;;;;;;;12.23;8.00;;;11.70;98.30;;;;;;5070684;28;20128;-77
2022/10/10 09:04:31;;;;;;;13.65;8.82;;;11.90;77.10;;;;;;5058708;28;20052;-77
2022/10/10 09:07:13;;;;;;;12.52;8.23;;;12.00;70.30;;;;;;5069167;28;20097;-78
2022/10/10 09:10:10;;;;;;;14.38;8.52;;;12.10;24.50;;;;;;5072368;28;20048;-77
2022/10/10 09:13:10;;;;;;;12.80;8.23;;;12.20;11.00;;;;;;5048596;28;20707;-77
2022/10/10 09:15:59;;;;;;;16.15;8.30;;;12.30;24.20;;;;;;5054752;28;20083;-77
2022/10/10 09:18:58;;;;;;;9.27;7.25;;;12.40;2.50;;;;;;5068136;28;20105;-78
2022/10/10 09:21:30;;;;;;;12.63;7.93;;;12.50;15.30;;;;;;5056237;28;20048;-77
2022/10/10 09:24:03;;;;;;;15.75;8.60;;;12.60;22.50;;;;;;5056432;28;20413;-77
2022/10/10 09:26:35;;;;;;;14.82;8.70;;;12.60;12.50;;;;;;5072164;28;20076;-77
2022/10/10 09:29:03;;;;;;;15.15;8.77;;;12.70;12.70;;;;;;5072551;28;20809;-77
2022/10/10 09:31:38;;;;;;;11.48;8.35;;;12.80;6.30;;;;;;5071492;28;20512;-78
2022/10/10 09:34:18;;;;;;;15.55;8.35;;;13.00;1.00;;;;;;5054514;28;20059;-77
2022/10/10 09:36:46;;;;;;;13.77;7.85;;;13.30;1.00;;;;;;5072650;28;20050;-77
2022/10/10 09:39:31;;;;;;;12.43;7.55;;;13.50;1.00;;;;;;5054116;28;20060;-77
2022/10/10 09:41:59;;;;;;;11.05;7.55;;;13.70;1.00;;;;;;5056008;28;20056;-77
2022/10/10 09:44:25;;;;;;;12.80;7.85;;;13.90;1.00;;;;;;5071599;28;20047;-77
2022/10/10 09:46:52;;;;;;;13.32;7.35;;;14.10;1.00;;;;;;5056235;28;20086;-78
2022/10/10 09:49:19;;;;;;;11.90;7.22;;;14.20;1.00;;;;;;5071039;28;20492;-78
2022/10/10 09:51:47;;;;;;;10.63;7.10;;;14.50;1.00;;;;;;5071482;28;20504;-78
2022/10/10 09:54:15;;;;;;;11.20;7.43;;;14.60;1.00;;;;;;5071604;28;20051;-78
2022/10/10 09:56:52;;;;;;;12.55;7.60;;;14.70;1.00;;;;;;5071547;28;20048;-79
2022/10/10 09:59:37;;;;;;;15.05;6.95;;;14.80;1.00;;;;;;5071956;28;20047;-78
2022/10/10 10:02:18;;;;;;;13.80;7.63;;;14.80;99.90;;;;;;5054695;28;20100;-78
2022/10/10 10:04:45;;;;;;;11.45;7.18;;;14.90;1.00;;;;;;5061551;28;20127;-78
2022/10/10 10:07:33;;;;;;;14.35;7.82;;;15.00;1.00;;;;;;5049560;28;20095;-81
2022/10/10 10:10:15;;;;;;;14.57;7.75;;;15.10;1.00;;;;;;5052704;28;20044;-77
2022/10/10 10:12:43;;;;;;;11.77;6.63;;;15.10;1.00;;;;;;5072408;28;20105;-78
2022/10/10 10:15:18;;;;;;;10.32;7.18;;;15.10;1.00;;;;;;5055012;28;20055;-78
2022/10/10 10:17:44;;;;;;;12.15;7.10;;;15.20;1.00;;;;;;5061354;28;20161;-78
2022/10/10 10:20:28;;;;;;;11.85;7.18;;;15.20;1.00;;;;;;5048881;28;20070;-78
2022/10/10 10:22:53;;;;;;;10.57;6.82;;;15.10;99.90;;;;;;5063522;28;20052;-78
2022/10/10 10:25:34;;;;;;;11.50;7.90;;;15.00;1.00;;;;;;5039717;28;20505;-78
2022/10/10 10:28:09;;;;;;;13.40;7.28;;;15.10;1.00;;;;;;5048863;28;20057;-78
2022/10/10 10:30:39;;;;;;;10.32;7.53;;;15.10;1.00;;;;;;5051848;28;20040;-78
2022/10/10 10:33:27;;;;;;;12.10;7.20;;;15.20;1.00;;;;;;5052311;28;20513;-78
2022/10/10 10:36:19;;;;;;;12.23;7.53;;;15.30;1.00;;;;;;5036704;28;20059;-78
2022/10/10 10:38:59;;;;;;;10.02;6.93;;;15.50;1.00;;;;;;5044204;28;20539;-78
2022/10/10 10:41:49;;;;;;;13.25;6.53;;;15.80;1.00;;;;;;5036260;28;20052;-78
2022/10/10 10:44:53;;;;;;;12.07;6.53;;;16.00;99.90;;;;;;5066267;28;20041;-81
2022/10/10 10:47:48;;;;;;;15.43;6.65;;;16.20;99.90;;;;;;5025464;28;20091;-78
2022/10/10 10:50:29;;;;;;;11.88;6.45;;;16.30;99.90;;;;;;5048397;28;20421;-78
2022/10/10 10:52:56;;;;;;;11.90;6.55;;;16.60;99.90;;;;;;5052806;28;20045;-78
2022/10/10 10:55:53;;;;;;;9.85;6.25;;;16.90;99.90;;;;;;5035823;28;20041;-78
2022/10/10 10:58:42;;;;;;;;;;;17.20;99.90;;;;;;5048377;28;20084;-78
2022/10/10 11:01:45;;;;;;;10.77;5.57;;;17.40;1.00;;;;;;5033208;28;20027;-78
2022/10/10 11:04:42;;;;;;;10.15;5.05;;;17.60;1.00;;;;;;5071452;28;20056;-78
2022/10/10 11:07:16;;;;;;;12.95;5.65;;;17.80;99.90;;;;;;5071055;28;20512;-78
2022/10/10 11:10:21;;;;;;;6.60;4.70;;;18.00;99.90;;;;;;5054227;28;20052;-78
2022/10/10 11:13:16;;;;;;;9.18;5.05;;;18.30;99.90;;;;;;4980371;28;20065;-78
2022/10/10 11:16:03;;;;;;;9.35;5.30;;;18.30;68.60;;;;;;5059338;28;20048;-78
2022/10/10 11:18:54;;;;;;;6.75;4.97;;;18.10;93.60;;;;;;5070190;28;20585;-77
2022/10/10 11:21:24;;;;;;;9.57;5.30;;;17.90;98.50;;;;;;5054203;28;20118;-81
2022/10/10 11:24:02;;;;;;;6.60;4.78;;;17.70;99.90;;;;;;5071178;28;20047;-78
2022/10/10 11:26:45;;;;;;;12.45;4.97;;;17.40;27.50;;;;;;5053605;28;20044;-78
2022/10/10 11:29:21;;;;;;;10.70;4.68;;;17.10;96.50;;;;;;5070871;28;20048;-78
2022/10/10 11:31:59;;;;;;;7.53;4.75;;;16.90;99.90;;;;;;5046680;28;20398;-79
2022/10/10 11:34:57;;;;;;;10.43;5.20;;;16.70;99.90;;;;;;5034507;28;20071;-78
2022/10/10 11:37:29;;;;;;;12.80;5.65;;;16.50;99.90;;;;;;5042639;28;20711;-81
2022/10/10 11:39:59;;;;;;;11.90;5.95;;;16.30;99.90;;;;;;5077879;28;20047;-78
2022/10/10 11:42:47;;;;;;;10.18;5.88;;;16.10;99.90;;;;;;5057331;28;20385;-78
2022/10/10 11:45:19;;;;;;;9.80;5.85;;;15.90;99.90;;;;;;5058939;28;20040;-78
2022/10/10 11:48:12;;;;;;;10.98;5.80;;;15.60;99.90;;;;;;5041103;28;20056;-78
2022/10/10 11:50:41;;;;;;;10.90;6.28;;;15.50;1.00;;;;;;5066127;28;20037;-78
2022/10/10 11:53:19;;;;;;;8.45;5.70;;;15.40;99.90;;;;;;5069154;28;20049;-78
2022/10/10 11:56:00;;;;;;;8.73;6.40;;;15.30;99.90;;;;;;5050665;28;20500;-78
2022/10/10 11:58:37;;;;;;;11.75;6.70;;;15.10;99.90;;;;;;5055576;28;20094;-81
2022/10/10 12:01:25;;;;;;;14.55;6.80;;;14.90;99.90;;;;;;5047749;28;20055;-78
2022/10/10 12:03:51;;;;;;;17.35;7.70;;;14.60;1.00;;;;;;5058952;28;20046;-77
2022/10/10 12:06:40;;;;;;;10.00;7.45;;;14.40;1.00;;;;;;5058039;28;20056;-78
2022/10/10 12:09:12;;;;;;;13.80;7.18;;;14.20;1.00;;;;;;5061275;28;20036;-77
2022/10/10 12:12:07;;;;;;;12.13;7.32;;;14.10;1.00;;;;;;5073876;28;20044;-77
2022/10/10 12:14:37;;;;;;;15.13;8.05;;;14.10;1.00;;;;;;5032072;28;20063;-78
2022/10/10 12:17:03;;;;;;;18.05;7.80;;;14.20;1.00;;;;;;5073957;28;20402;-78
2022/10/10 12:19:29;;;;;;;14.48;8.52;;;14.20;1.00;;;;;;5036966;28;20053;-79
2022/10/10 12:22:04;;;;;;;14.23;8.38;;;14.30;1.00;;;;;;5040684;28;20050;-78
2022/10/10 12:25:12;;;;;;;15.20;8.38;;;14.40;1.00;;;;;;5072596;28;20055;-78
2022/10/10 12:27:59;;;;;;;12.32;7.90;;;14.50;1.00;;;;;;5055891;28;20059;-77
2022/10/10 12:30:25;;;;;;;12.63;8.20;;;14.50;1.00;;;;;;5073719;28;20097;-78
2022/10/10 12:32:53;;;;;;;15.15;8.27;;;14.50;1.00;;;;;;5022820;28;20048;-78
2022/10/10 12:35:29;;;;;;;19.77;8.32;;;14.50;1.00;;;;;;5074344;28;20071;-79
2022/10/10 12:38:04;;;;;;;14.82;7.65;;;14.50;1.00;;;;;;5071308;28;20052;-78
2022/10/10 12:40:32;;;;;;;14.45;7.82;;;14.50;1.00;;;;;;5072482;28;20056;-81
2022/10/10 12:43:37;;;;;;;15.43;8.77;;;14.50;1.00;;;;;;5053313;28;20508;-78
2022/10/10 12:46:15;;;;;;;15.73;9.20;;;14.50;1.00;;;;;;5011432;28;20106;-78
2022/10/10 12:48:41;;;;;;;17.48;8.32;;;14.50;1.00;;;;;;5047744;28;20061;-78
2022/10/10 12:51:20;;;;;;;18.15;8.65;;;14.50;1.00;;;;;;5024249;28;20067;-78
2022/10/10 12:53:54;;;;;;;15.18;8.60;;;14.50;1.00;;;;;;5051200;28;20080;-78
2022/10/10 12:56:34;;;;;;;15.05;8.32;;;14.40;1.00;;;;;;5073866;28;20062;-78
2022/10/10 12:59:00;;;;;;;14.50;9.13;;;14.50;1.00;;;;;;5056630;28;20101;-78
2022/10/10 13:01:30;;;;;;;17.80;9.15;;;14.40;1.00;;;;;;5040489;28;20143;-78
2022/10/10 13:03:57;;;;;;;17.13;10.23;;;14.20;8.00;;;;;;5049957;28;20052;-78
2022/10/10 13:06:43;;;;;;;18.48;11.50;;;14.10;37.40;;;;;;5053748;28;20045;-78
2022/10/10 13:09:20;;;;;;;;;;;14.00;88.90;;;;;;5070464;28;20053;-78